createdAt,value
2022-08-09T00:04:00.848Z,95932.75
2022-08-09T00:07:21.815Z,95929.53
2022-08-09T00:11:24.493Z,95933.22
2022-08-09T00:15:09.329Z,95931.75
2022-08-09T00:18:57.990Z,95934.00
2022-08-09T00:22:41.166Z,95935.88
2022-08-09T00:26:33.040Z,95938.69
2022-08-09T00:30:25.430Z,95935.34
2022-08-09T00:34:09.448Z,95940.44
2022-08-09T00:37:53.787Z,95936.84
2022-08-09T00:44:10.713Z,95935.25
2022-08-09T00:45:46.778Z,95933.03
2022-08-09T00:49:38.551Z,95934.09
2022-08-09T00:53:23.977Z,95940.09
2022-08-09T00:57:10.563Z,95936.84
2022-08-09T01:00:55.737Z,95937.31
2022-08-09T01:04:50.922Z,95936.50
2022-08-09T01:08:48.812Z,95932.00
2022-08-09T01:12:39.931Z,95942.19
2022-08-09T01:16:25.384Z,95938.72
2022-08-09T01:20:10.268Z,95938.47
2022-08-09T01:24:02.941Z,95938.94
2022-08-09T01:27:52.680Z,95940.56
2022-08-09T01:32:32.495Z,95936.84
2022-08-09T01:35:43.890Z,95936.50
2022-08-09T01:39:27.971Z,95940.69
2022-08-09T01:43:15.191Z,95943.56
2022-08-09T01:46:59.119Z,95944.16
2022-08-09T01:50:44.111Z,95936.06
2022-08-09T01:54:33.433Z,95934.91
2022-08-09T01:58:18.719Z,95935.81
2022-08-09T02:02:09.411Z,95939.41
2022-08-09T02:06:06.629Z,95938.50
2022-08-09T02:09:59.456Z,95946.31
2022-08-09T02:14:06.279Z,95944.69
2022-08-09T02:18:00.228Z,95950.47
2022-08-09T02:21:55.944Z,95950.13
2022-08-09T02:25:42.523Z,95946.88
2022-08-09T02:29:37.804Z,95949.88
2022-08-09T02:33:23.578Z,95954.63
2022-08-09T02:37:31.621Z,95952.09
2022-08-09T02:41:17.887Z,95963.16
2022-08-09T02:45:04.938Z,95961.88
2022-08-09T02:48:51.146Z,95960.13
2022-08-09T02:52:39.651Z,95959.88
2022-08-09T02:56:23.005Z,95957.97
2022-08-09T03:00:25.374Z,95958.25
2022-08-09T03:04:18.467Z,95965.50
2022-08-09T03:08:03.426Z,95961.91
2022-08-09T03:12:06.163Z,95965.25
2022-08-09T03:16:05.873Z,95957.13
2022-08-09T03:19:59.354Z,95957.94
2022-08-09T03:24:01.589Z,95947.88
2022-08-09T03:27:50.259Z,95949.25
2022-08-09T03:31:42.600Z,95949.22
2022-08-09T03:35:44.267Z,95949.03
2022-08-09T03:39:40.776Z,95959.47
2022-08-09T03:43:33.032Z,95963.88
2022-08-09T03:47:17.312Z,95957.78
2022-08-09T03:51:00.483Z,95963.31
2022-08-09T03:54:45.967Z,95973.94
2022-08-09T03:58:33.999Z,95979.97
2022-08-09T04:02:19.919Z,95971.53
2022-08-09T04:06:09.342Z,95978.47
2022-08-09T04:09:54.591Z,95976.03
2022-08-09T04:14:37.326Z,95982.63
2022-08-09T04:17:43.589Z,95987.34
2022-08-09T04:21:26.439Z,95987.78
2022-08-09T04:25:10.519Z,95978.09
2022-08-09T04:28:57.421Z,95986.00
2022-08-09T04:32:46.003Z,95993.03
2022-08-09T04:36:32.281Z,95994.53
2022-08-09T04:40:19.043Z,95984.38
2022-08-09T04:44:07.349Z,95997.88
2022-08-09T04:48:00.940Z,96001.19
2022-08-09T04:51:46.946Z,96005.47
2022-08-09T04:55:35.399Z,96000.75
2022-08-09T04:59:22.714Z,96003.56
2022-08-09T05:03:30.102Z,96009.00
2022-08-09T05:07:17.444Z,96009.84
2022-08-09T05:11:02.467Z,96009.63
2022-08-09T05:14:45.462Z,96018.09
2022-08-09T05:18:50.871Z,96017.97
2022-08-09T05:23:51.003Z,96018.94
2022-08-09T05:26:46.113Z,96017.22
2022-08-09T05:30:31.321Z,96018.84
2022-08-09T05:34:16.557Z,96027.28
2022-08-09T05:38:00.005Z,96025.94
2022-08-09T05:41:44.377Z,96033.09
2022-08-09T05:45:52.651Z,96027.44
2022-08-09T05:50:26.838Z,96020.16
2022-08-09T05:53:39.537Z,96020.84
2022-08-09T05:57:51.088Z,96024.06
2022-08-09T06:01:42.360Z,96035.63
2022-08-09T06:05:31.051Z,96026.13
2022-08-09T06:09:55.219Z,96027.28
2022-08-09T06:13:33.866Z,96031.66
2022-08-09T06:17:17.106Z,96033.41
2022-08-09T06:21:02.057Z,96035.16
2022-08-09T06:24:47.153Z,96036.28
2022-08-09T06:28:32.009Z,96032.09
2022-08-09T06:32:53.274Z,96030.16
2022-08-09T06:36:18.989Z,96031.38
2022-08-09T06:40:21.585Z,96034.16
2022-08-09T06:44:07.255Z,96039.50
2022-08-09T06:47:50.000Z,96040.19
2022-08-09T06:51:45.977Z,96044.91
2022-08-09T06:55:31.903Z,96045.41
2022-08-09T07:00:54.991Z,96037.25
2022-08-09T07:03:17.722Z,96041.72
2022-08-09T07:07:05.013Z,96042.47
2022-08-09T07:10:48.057Z,96042.88
2022-08-09T07:14:30.821Z,96036.59
2022-08-09T07:18:15.077Z,96048.72
2022-08-09T07:21:59.092Z,96057.13
2022-08-09T07:25:44.402Z,96060.69
2022-08-09T07:29:30.731Z,96051.94
2022-08-09T07:33:20.626Z,96055.78
2022-08-09T07:37:03.609Z,96049.47
2022-08-09T07:41:08.331Z,96045.91
2022-08-09T07:44:54.628Z,96050.28
2022-08-09T07:48:39.335Z,96057.84
2022-08-09T07:52:22.160Z,96064.97
2022-08-09T07:56:08.800Z,96060.06
2022-08-09T08:00:10.889Z,96071.38
2022-08-09T08:04:04.247Z,96069.88
2022-08-09T08:08:43.622Z,96064.16
2022-08-09T08:12:09.419Z,96067.50
2022-08-09T08:16:01.732Z,96066.19
2022-08-09T08:19:44.565Z,96075.09
2022-08-09T08:23:29.139Z,96071.16
2022-08-09T08:27:19.063Z,96070.97
2022-08-09T08:31:14.142Z,96077.44
2022-08-09T08:34:58.793Z,96067.84
2022-08-09T08:38:41.883Z,96075.44
2022-08-09T08:42:32.155Z,96069.91
2022-08-09T08:46:32.065Z,96068.09
2022-08-09T08:50:18.564Z,96064.91
2022-08-09T08:54:06.841Z,96069.25
2022-08-09T08:57:56.478Z,96063.91
2022-08-09T09:01:53.385Z,96068.75
2022-08-09T09:05:58.238Z,96073.06
2022-08-09T09:10:01.444Z,96067.44
2022-08-09T09:13:55.874Z,96049.50
2022-08-09T09:17:49.203Z,96060.25
2022-08-09T09:21:43.434Z,96059.22
2022-08-09T09:26:01.808Z,96063.53
2022-08-09T09:30:14.063Z,96065.13
2022-08-09T09:33:46.941Z,96061.53
2022-08-09T09:37:40.918Z,96063.16
2022-08-09T09:41:48.669Z,96072.56
2022-08-09T09:46:39.544Z,96070.13
2022-08-09T09:50:14.058Z,96068.78
2022-08-09T09:54:17.091Z,96067.97
2022-08-09T09:58:18.622Z,96062.63
2022-08-09T10:02:03.678Z,96056.78
2022-08-09T10:06:03.508Z,96067.75
2022-08-09T10:09:55.048Z,96072.84
2022-08-09T10:13:43.702Z,96066.72
2022-08-09T10:17:39.339Z,96068.88
2022-08-09T10:21:33.420Z,96074.78
2022-08-09T10:25:16.440Z,96049.06
2022-08-09T10:29:21.234Z,96054.19
2022-08-09T10:33:09.683Z,96053.69
2022-08-09T10:37:13.959Z,96053.19
2022-08-09T10:40:57.028Z,96051.59
2022-08-09T10:44:40.088Z,96054.88
2022-08-09T10:48:30.655Z,96048.97
2022-08-09T10:52:22.077Z,96052.22
2022-08-09T10:56:22.592Z,96040.50
2022-08-09T11:00:51.116Z,96039.19
2022-08-09T11:04:55.813Z,96041.06
2022-08-09T11:08:47.120Z,96036.25
2022-08-09T11:12:30.795Z,96038.94
2022-08-09T11:16:35.349Z,96039.75
2022-08-09T11:20:23.525Z,96034.66
2022-08-09T11:24:06.560Z,96039.75
2022-08-09T11:28:04.461Z,96029.28
2022-08-09T11:31:52.803Z,96040.59
2022-08-09T11:35:49.116Z,96033.66
2022-08-09T11:39:33.507Z,96052.44
2022-08-09T11:43:39.792Z,96049.22
2022-08-09T11:47:22.609Z,96049.75
2022-08-09T11:51:21.279Z,96039.88
2022-08-09T11:55:35.019Z,96032.66
2022-08-09T11:59:35.241Z,96033.16
2022-08-09T12:03:55.807Z,96038.81
2022-08-09T12:07:41.345Z,96029.94
2022-08-09T12:11:27.417Z,96020.75
2022-08-09T12:15:48.726Z,96019.41
2022-08-09T12:19:30.307Z,96012.19
2022-08-09T12:23:14.491Z,96025.31
2022-08-09T12:29:14.403Z,96015.28
2022-08-09T12:31:58.825Z,96014.19
2022-08-09T12:35:40.068Z,96021.13
2022-08-09T12:39:25.265Z,96015.44
2022-08-09T12:43:10.385Z,96014.03
2022-08-09T12:46:53.261Z,95996.75
2022-08-09T12:50:36.713Z,96009.84
2022-08-09T12:54:20.081Z,96000.06
2022-08-09T12:58:24.446Z,96000.19
2022-08-09T13:02:11.149Z,95997.91
2022-08-09T13:06:14.363Z,96008.59
2022-08-09T13:10:02.760Z,96001.44
2022-08-09T13:14:41.101Z,95985.84
2022-08-09T13:18:05.452Z,95999.41
2022-08-09T13:22:36.093Z,95986.22
2022-08-09T13:26:11.122Z,95997.44
2022-08-09T13:30:03.635Z,95990.81
2022-08-09T13:34:00.255Z,95988.38
2022-08-09T13:37:52.081Z,95985.97
2022-08-09T13:41:58.907Z,95993.25
2022-08-09T13:46:44.774Z,95991.78
2022-08-09T13:49:57.475Z,95978.94
2022-08-09T13:53:43.181Z,95973.25
2022-08-09T13:57:36.970Z,95977.50
2022-08-09T14:02:00.502Z,95981.91
2022-08-09T14:05:59.912Z,95985.31
2022-08-09T14:09:30.791Z,95982.56
2022-08-09T14:13:27.698Z,95977.78
2022-08-09T14:17:22.524Z,95978.13
2022-08-09T14:21:06.011Z,95976.94
2022-08-09T14:24:54.040Z,95973.25
2022-08-09T14:28:37.060Z,95968.66
2022-08-09T14:32:28.744Z,95967.25
2022-08-09T14:36:20.350Z,95964.19
2022-08-09T14:40:04.367Z,95979.44
2022-08-09T14:43:53.453Z,95979.34
2022-08-09T14:47:46.309Z,95979.34
2022-08-09T14:51:42.258Z,95980.72
2022-08-09T14:55:25.674Z,95972.25
2022-08-09T14:59:15.255Z,95969.34
2022-08-09T15:03:00.035Z,95962.22
2022-08-09T15:06:43.010Z,95970.97
2022-08-09T15:10:33.337Z,95964.53
2022-08-09T15:14:19.100Z,95977.59
2022-08-09T15:18:03.514Z,95966.06
2022-08-09T15:22:01.825Z,95956.84
2022-08-09T15:25:45.262Z,95965.88
2022-08-09T15:30:56.975Z,95954.28
2022-08-09T15:34:15.526Z,95952.31
2022-08-09T15:38:00.697Z,95941.53
2022-08-09T15:41:42.194Z,95947.84
2022-08-09T15:45:29.343Z,95938.75
2022-08-09T15:49:20.730Z,95950.47
2022-08-09T15:53:32.625Z,95948.91
2022-08-09T15:57:09.631Z,95951.59
2022-08-09T16:00:52.525Z,95940.19
2022-08-09T16:04:37.121Z,95947.34
2022-08-09T16:08:30.078Z,95948.41
2022-08-09T16:12:14.148Z,95946.50
2022-08-09T16:16:04.742Z,95947.28
2022-08-09T16:20:04.867Z,95942.59
2022-08-09T16:23:55.957Z,95946.00
2022-08-09T16:27:47.887Z,95940.94
2022-08-09T16:32:10.238Z,95934.63
2022-08-09T16:35:57.981Z,95941.69
2022-08-09T16:39:54.528Z,95946.16
2022-08-09T16:43:44.720Z,95941.28
2022-08-09T16:48:38.471Z,95934.56
2022-08-09T16:51:31.691Z,95939.16
2022-08-09T16:55:18.168Z,95936.19
2022-08-09T16:59:06.709Z,95933.72
2022-08-09T17:02:57.185Z,95942.09
2022-08-09T17:08:40.829Z,95939.72
2022-08-09T17:10:44.280Z,95934.53
2022-08-09T17:14:28.850Z,95945.59
2022-08-09T17:18:11.741Z,95947.88
2022-08-09T17:21:59.673Z,95946.22
2022-08-09T17:25:42.551Z,95956.09
2022-08-09T17:29:25.315Z,95949.75
2022-08-09T17:33:22.549Z,95953.97
2022-08-09T17:37:07.647Z,95952.78
2022-08-09T17:41:03.273Z,95960.22
2022-08-09T17:44:49.491Z,95963.22
2022-08-09T17:48:32.644Z,95950.88
2022-08-09T17:52:20.600Z,95959.81
2022-08-09T17:56:08.325Z,95967.38
2022-08-09T18:00:00.837Z,95972.78
2022-08-09T18:03:49.189Z,95977.13
2022-08-09T18:07:34.448Z,95973.09
2022-08-09T18:11:17.620Z,95977.75
2022-08-09T18:15:07.748Z,95979.66
2022-08-09T18:18:54.761Z,95985.56
2022-08-09T18:22:39.976Z,95986.00
2022-08-09T18:26:27.054Z,95986.72
2022-08-09T18:30:39.959Z,95987.91
2022-08-09T18:34:13.421Z,95987.50
2022-08-09T18:37:57.535Z,95994.09
2022-08-09T18:41:42.140Z,95999.81
2022-08-09T18:46:51.267Z,96004.47
2022-08-09T18:49:41.766Z,96011.00
2022-08-09T18:53:36.772Z,96015.34
2022-08-09T18:57:38.573Z,96023.41
2022-08-09T19:01:27.683Z,96019.16
2022-08-09T19:05:20.596Z,96025.09
2022-08-09T19:09:34.365Z,96026.44
2022-08-09T19:13:20.779Z,96031.31
2022-08-09T19:17:06.561Z,96033.16
2022-08-09T19:20:52.294Z,96050.03
2022-08-09T19:25:08.800Z,96042.78
2022-08-09T19:28:48.777Z,96045.19
2022-08-09T19:32:32.000Z,96039.53
2022-08-09T19:36:16.434Z,96048.66
2022-08-09T19:40:05.071Z,96048.63
2022-08-09T19:44:02.206Z,96055.56
2022-08-09T19:47:45.762Z,96038.38
2022-08-09T19:51:31.068Z,96053.13
2022-08-09T19:55:15.453Z,96056.53
2022-08-09T19:59:18.252Z,96051.41
2022-08-09T20:04:13.854Z,96057.56
2022-08-09T20:07:06.299Z,96057.75
2022-08-09T20:10:51.547Z,96061.47
2022-08-09T20:14:35.997Z,96055.81
2022-08-09T20:18:32.813Z,96059.53
2022-08-09T20:22:15.657Z,96057.91
2022-08-09T20:26:02.961Z,96057.31
2022-08-09T20:29:45.748Z,96063.41
2022-08-09T20:33:41.307Z,96069.00
2022-08-09T20:38:19.450Z,96063.00
2022-08-09T20:41:34.914Z,96062.97
2022-08-09T20:45:56.787Z,96056.50
2022-08-09T20:49:23.201Z,96070.94
2022-08-09T20:53:21.095Z,96067.31
2022-08-09T20:57:10.165Z,96068.56
2022-08-09T21:01:13.745Z,96072.81
2022-08-09T21:05:52.070Z,96064.53
2022-08-09T21:08:59.428Z,96072.81
2022-08-09T21:16:40.572Z,96074.22
2022-08-09T21:20:26.340Z,96066.44
2022-08-09T21:24:09.942Z,96060.78
2022-08-09T21:27:55.482Z,96065.50
2022-08-09T21:31:49.090Z,96065.09
2022-08-09T21:35:40.535Z,96070.63
2022-08-09T21:39:42.349Z,96054.78
2022-08-09T21:43:31.433Z,96067.03
2022-08-09T21:47:29.447Z,96062.44
2022-08-09T21:51:14.114Z,96066.16
2022-08-09T21:55:03.802Z,96064.47
2022-08-09T21:58:48.720Z,96064.91
2022-08-09T22:02:36.651Z,96065.91
2022-08-09T22:06:20.689Z,96071.94
2022-08-09T22:10:05.924Z,96061.94
2022-08-09T22:13:50.003Z,96068.22
2022-08-09T22:17:34.106Z,96069.72
2022-08-09T22:21:22.433Z,96067.13
2022-08-09T22:26:07.033Z,96066.16
2022-08-09T22:29:12.010Z,96058.00
2022-08-09T22:32:54.792Z,96056.31
2022-08-09T22:36:46.148Z,96057.78
2022-08-09T22:40:29.459Z,96047.03
2022-08-09T22:44:18.393Z,96043.22
2022-08-09T22:48:10.695Z,96048.22
2022-08-09T22:52:01.890Z,96038.25
2022-08-09T22:56:29.711Z,96045.72
2022-08-09T22:59:56.119Z,96039.13
2022-08-09T23:04:03.490Z,96040.09
2022-08-09T23:08:22.161Z,96042.03
2022-08-09T23:12:05.189Z,96038.63
2022-08-09T23:16:02.597Z,96032.50
2022-08-09T23:20:07.039Z,96031.94
2022-08-09T23:24:05.414Z,96027.56
2022-08-09T23:27:57.220Z,96018.19
2022-08-09T23:31:54.520Z,96028.38
2022-08-09T23:36:06.328Z,96037.75
2022-08-09T23:39:40.316Z,96021.28
2022-08-09T23:43:23.450Z,96022.09
2022-08-09T23:47:07.774Z,96020.03
2022-08-09T23:50:50.567Z,96022.28
2022-08-09T23:54:33.415Z,96015.25
2022-08-09T23:58:25.988Z,96019.09
